sensor_id;sensor_type;location;lat;lon;timestamp;P1;durP1;ratioP1;P2;durP2;ratioP2
26696;SDS011;14312;52.614;13.496;2023-08-31T00:01:09;1.75;;;1.65;;
26696;SDS011;14312;52.614;13.496;2023-08-31T00:03:55;1.70;;;1.60;;
26696;SDS011;14312;52.614;13.496;2023-08-31T00:06:41;2.17;;;1.92;;
26696;SDS011;14312;52.614;13.496;2023-08-31T00:09:30;2.05;;;1.80;;
26696;SDS011;14312;52.614;13.496;2023-08-31T00:12:16;1.58;;;1.48;;
26696;SDS011;14312;52.614;13.496;2023-08-31T00:15:02;1.77;;;1.60;;
26696;SDS011;14312;52.614;13.496;2023-08-31T00:17:50;1.70;;;1.60;;
26696;SDS011;14312;52.614;13.496;2023-08-31T00:20:36;1.45;;;1.35;;
26696;SDS011;14312;52.614;13.496;2023-08-31T00:23:22;1.70;;;1.60;;
26696;SDS011;14312;52.614;13.496;2023-08-31T00:26:08;2.30;;;2.10;;
26696;SDS011;14312;52.614;13.496;2023-08-31T00:28:54;2.40;;;2.20;;
26696;SDS011;14312;52.614;13.496;2023-08-31T00:31:40;2.65;;;2.13;;
26696;SDS011;14312;52.614;13.496;2023-08-31T00:34:27;1.88;;;1.77;;
26696;SDS011;14312;52.614;13.496;2023-08-31T00:37:13;1.90;;;1.80;;
26696;SDS011;14312;52.614;13.496;2023-08-31T00:39:59;1.70;;;1.60;;
26696;SDS011;14312;52.614;13.496;2023-08-31T00:42:45;1.85;;;1.75;;
26696;SDS011;14312;52.614;13.496;2023-08-31T00:45:31;2.03;;;1.80;;
26696;SDS011;14312;52.614;13.496;2023-08-31T00:48:18;1.90;;;1.80;;
26696;SDS011;14312;52.614;13.496;2023-08-31T00:51:04;1.85;;;1.75;;
26696;SDS011;14312;52.614;13.496;2023-08-31T00:53:52;1.70;;;1.60;;
26696;SDS011;14312;52.614;13.496;2023-08-31T00:56:41;1.85;;;1.75;;
26696;SDS011;14312;52.614;13.496;2023-08-31T00:59:27;1.65;;;1.55;;
26696;SDS011;14312;52.614;13.496;2023-08-31T01:05:08;1.88;;;1.77;;
26696;SDS011;14312;52.614;13.496;2023-08-31T01:14:51;1.85;;;1.75;;
26696;SDS011;14312;52.614;13.496;2023-08-31T01:17:52;2.22;;;2.03;;
26696;SDS011;14312;52.614;13.496;2023-08-31T01:20:55;1.83;;;1.73;;
26696;SDS011;14312;52.614;13.496;2023-08-31T01:24:03;2.15;;;2.00;;
26696;SDS011;14312;52.614;13.496;2023-08-31T01:26:51;2.30;;;2.10;;
26696;SDS011;14312;52.614;13.496;2023-08-31T01:29:38;2.13;;;1.92;;
26696;SDS011;14312;52.614;13.496;2023-08-31T01:32:24;1.88;;;1.77;;
26696;SDS011;14312;52.614;13.496;2023-08-31T01:35:10;2.25;;;1.88;;
26696;SDS011;14312;52.614;13.496;2023-08-31T01:37:57;2.50;;;2.30;;
26696;SDS011;14312;52.614;13.496;2023-08-31T01:40:53;2.95;;;2.65;;
26696;SDS011;14312;52.614;13.496;2023-08-31T01:43:41;2.70;;;2.50;;
26696;SDS011;14312;52.614;13.496;2023-08-31T01:46:29;2.30;;;2.10;;
26696;SDS011;14312;52.614;13.496;2023-08-31T01:49:16;2.78;;;2.58;;
26696;SDS011;14312;52.614;13.496;2023-08-31T01:52:02;1.95;;;1.85;;
26696;SDS011;14312;52.614;13.496;2023-08-31T01:54:48;2.67;;;2.47;;
26696;SDS011;14312;52.614;13.496;2023-08-31T01:57:34;2.00;;;1.90;;
26696;SDS011;14312;52.614;13.496;2023-08-31T02:00:20;1.73;;;1.63;;
26696;SDS011;14312;52.614;13.496;2023-08-31T02:03:06;1.88;;;1.77;;
26696;SDS011;14312;52.614;13.496;2023-08-31T02:05:53;2.03;;;1.80;;
26696;SDS011;14312;52.614;13.496;2023-08-31T02:08:39;2.00;;;1.80;;
26696;SDS011;14312;52.614;13.496;2023-08-31T02:11:25;1.65;;;1.55;;
26696;SDS011;14312;52.614;13.496;2023-08-31T02:14:11;1.92;;;1.83;;
26696;SDS011;14312;52.614;13.496;2023-08-31T02:16:57;1.98;;;1.83;;
26696;SDS011;14312;52.614;13.496;2023-08-31T02:19:43;2.20;;;2.00;;
26696;SDS011;14312;52.614;13.496;2023-08-31T02:22:30;1.90;;;1.80;;
26696;SDS011;14312;52.614;13.496;2023-08-31T02:25:19;1.83;;;1.73;;
26696;SDS011;14312;52.614;13.496;2023-08-31T02:28:05;1.83;;;1.73;;
26696;SDS011;14312;52.614;13.496;2023-08-31T02:30:58;1.77;;;1.67;;
26696;SDS011;14312;52.614;13.496;2023-08-31T02:33:45;1.70;;;1.60;;
26696;SDS011;14312;52.614;13.496;2023-08-31T02:36:32;2.33;;;1.45;;
26696;SDS011;14312;52.614;13.496;2023-08-31T02:39:18;1.70;;;1.60;;
26696;SDS011;14312;52.614;13.496;2023-08-31T02:42:04;1.60;;;1.50;;
26696;SDS011;14312;52.614;13.496;2023-08-31T02:44:54;1.60;;;1.50;;
26696;SDS011;14312;52.614;13.496;2023-08-31T02:47:40;1.60;;;1.50;;
26696;SDS011;14312;52.614;13.496;2023-08-31T02:50:25;3.08;;;1.50;;
26696;SDS011;14312;52.614;13.496;2023-08-31T02:53:11;1.63;;;1.52;;
26696;SDS011;14312;52.614;13.496;2023-08-31T02:55:57;1.25;;;1.15;;
26696;SDS011;14312;52.614;13.496;2023-08-31T02:58:43;1.35;;;1.25;;
26696;SDS011;14312;52.614;13.496;2023-08-31T03:01:29;1.60;;;1.50;;
26696;SDS011;14312;52.614;13.496;2023-08-31T03:04:15;1.40;;;1.30;;
26696;SDS011;14312;52.614;13.496;2023-08-31T03:07:03;1.40;;;1.30;;
26696;SDS011;14312;52.614;13.496;2023-08-31T03:09:49;1.58;;;1.48;;
26696;SDS011;14312;52.614;13.496;2023-08-31T03:12:36;1.67;;;1.58;;
26696;SDS011;14312;52.614;13.496;2023-08-31T03:15:22;1.20;;;1.10;;
26696;SDS011;14312;52.614;13.496;2023-08-31T03:18:08;2.22;;;1.50;;
26696;SDS011;14312;52.614;13.496;2023-08-31T03:20:54;1.40;;;1.27;;
26696;SDS011;14312;52.614;13.496;2023-08-31T03:23:41;1.67;;;1.48;;
26696;SDS011;14312;52.614;13.496;2023-08-31T03:26:27;1.20;;;1.10;;
26696;SDS011;14312;52.614;13.496;2023-08-31T03:29:13;1.52;;;1.42;;
26696;SDS011;14312;52.614;13.496;2023-08-31T03:31:59;1.80;;;1.40;;
26696;SDS011;14312;52.614;13.496;2023-08-31T03:34:49;1.40;;;1.30;;
26696;SDS011;14312;52.614;13.496;2023-08-31T03:37:37;1.30;;;1.20;;
26696;SDS011;14312;52.614;13.496;2023-08-31T03:40:23;1.20;;;1.13;;
26696;SDS011;14312;52.614;13.496;2023-08-31T03:43:09;1.30;;;1.20;;
26696;SDS011;14312;52.614;13.496;2023-08-31T03:45:58;1.55;;;1.45;;
26696;SDS011;14312;52.614;13.496;2023-08-31T03:48:45;1.50;;;1.40;;
26696;SDS011;14312;52.614;13.496;2023-08-31T03:51:31;1.40;;;1.30;;
26696;SDS011;14312;52.614;13.496;2023-08-31T03:54:17;1.70;;;1.60;;
26696;SDS011;14312;52.614;13.496;2023-08-31T03:57:03;1.60;;;1.50;;
26696;SDS011;14312;52.614;13.496;2023-08-31T03:59:50;1.63;;;1.50;;
26696;SDS011;14312;52.614;13.496;2023-08-31T04:02:35;2.28;;;1.45;;
26696;SDS011;14312;52.614;13.496;2023-08-31T04:05:23;1.95;;;1.85;;
26696;SDS011;14312;52.614;13.496;2023-08-31T04:08:09;2.10;;;1.95;;
26696;SDS011;14312;52.614;13.496;2023-08-31T04:10:55;1.58;;;1.48;;
26696;SDS011;14312;52.614;13.496;2023-08-31T04:13:41;1.60;;;1.50;;
26696;SDS011;14312;52.614;13.496;2023-08-31T04:16:27;1.73;;;1.63;;
26696;SDS011;14312;52.614;13.496;2023-08-31T04:19:13;1.70;;;1.60;;
26696;SDS011;14312;52.614;13.496;2023-08-31T04:21:59;2.28;;;2.08;;
26696;SDS011;14312;52.614;13.496;2023-08-31T04:24:45;1.98;;;1.83;;
26696;SDS011;14312;52.614;13.496;2023-08-31T04:27:31;2.17;;;1.98;;
26696;SDS011;14312;52.614;13.496;2023-08-31T04:30:17;1.80;;;1.70;;
26696;SDS011;14312;52.614;13.496;2023-08-31T04:33:04;2.67;;;2.47;;
26696;SDS011;14312;52.614;13.496;2023-08-31T04:35:52;2.65;;;2.45;;
26696;SDS011;14312;52.614;13.496;2023-08-31T04:38:37;2.45;;;2.00;;
26696;SDS011;14312;52.614;13.496;2023-08-31T04:41:23;4.00;;;2.50;;
26696;SDS011;14312;52.614;13.496;2023-08-31T04:44:09;2.90;;;2.65;;
26696;SDS011;14312;52.614;13.496;2023-08-31T04:46:56;2.88;;;2.67;;
26696;SDS011;14312;52.614;13.496;2023-08-31T04:49:42;2.40;;;2.20;;
26696;SDS011;14312;52.614;13.496;2023-08-31T04:52:28;2.63;;;2.42;;
26696;SDS011;14312;52.614;13.496;2023-08-31T04:55:14;2.70;;;2.50;;
26696;SDS011;14312;52.614;13.496;2023-08-31T04:58:00;2.55;;;2.35;;
26696;SDS011;14312;52.614;13.496;2023-08-31T05:00:46;3.30;;;3.00;;
26696;SDS011;14312;52.614;13.496;2023-08-31T05:03:33;2.67;;;2.47;;
26696;SDS011;14312;52.614;13.496;2023-08-31T05:06:18;2.92;;;2.72;;
26696;SDS011;14312;52.614;13.496;2023-08-31T05:09:05;2.80;;;2.60;;
26696;SDS011;14312;52.614;13.496;2023-08-31T05:11:52;2.78;;;2.58;;
26696;SDS011;14312;52.614;13.496;2023-08-31T05:14:38;3.90;;;3.60;;
26696;SDS011;14312;52.614;13.496;2023-08-31T05:17:25;3.60;;;3.30;;
26696;SDS011;14312;52.614;13.496;2023-08-31T05:20:11;3.97;;;3.67;;
26696;SDS011;14312;52.614;13.496;2023-08-31T05:22:57;3.65;;;3.35;;
26696;SDS011;14312;52.614;13.496;2023-08-31T05:25:43;3.40;;;3.10;;
26696;SDS011;14312;52.614;13.496;2023-08-31T05:28:30;2.90;;;2.70;;
26696;SDS011;14312;52.614;13.496;2023-08-31T05:31:15;3.40;;;3.20;;
26696;SDS011;14312;52.614;13.496;2023-08-31T05:34:01;3.60;;;3.30;;
26696;SDS011;14312;52.614;13.496;2023-08-31T05:36:47;2.97;;;2.78;;
26696;SDS011;14312;52.614;13.496;2023-08-31T05:39:34;3.25;;;3.03;;
26696;SDS011;14312;52.614;13.496;2023-08-31T05:42:20;3.70;;;3.40;;
26696;SDS011;14312;52.614;13.496;2023-08-31T05:45:06;3.38;;;3.05;;
26696;SDS011;14312;52.614;13.496;2023-08-31T05:47:52;3.70;;;3.40;;
26696;SDS011;14312;52.614;13.496;2023-08-31T05:50:38;4.15;;;3.85;;
26696;SDS011;14312;52.614;13.496;2023-08-31T05:53:24;4.07;;;3.75;;
26696;SDS011;14312;52.614;13.496;2023-08-31T05:56:10;4.20;;;3.80;;
26696;SDS011;14312;52.614;13.496;2023-08-31T05:58:56;4.10;;;3.80;;
26696;SDS011;14312;52.614;13.496;2023-08-31T06:01:43;4.05;;;3.75;;
26696;SDS011;14312;52.614;13.496;2023-08-31T06:04:29;5.30;;;4.13;;
26696;SDS011;14312;52.614;13.496;2023-08-31T06:07:15;3.90;;;3.60;;
26696;SDS011;14312;52.614;13.496;2023-08-31T06:10:01;4.15;;;3.78;;
26696;SDS011;14312;52.614;13.496;2023-08-31T06:12:49;3.95;;;3.58;;
26696;SDS011;14312;52.614;13.496;2023-08-31T06:15:36;4.05;;;3.20;;
26696;SDS011;14312;52.614;13.496;2023-08-31T06:18:22;3.22;;;2.92;;
26696;SDS011;14312;52.614;13.496;2023-08-31T06:21:08;3.80;;;3.50;;
26696;SDS011;14312;52.614;13.496;2023-08-31T06:23:54;3.22;;;2.95;;
26696;SDS011;14312;52.614;13.496;2023-08-31T06:26:40;3.90;;;3.60;;
26696;SDS011;14312;52.614;13.496;2023-08-31T06:29:26;4.03;;;3.60;;
26696;SDS011;14312;52.614;13.496;2023-08-31T06:32:12;5.15;;;4.00;;
26696;SDS011;14312;52.614;13.496;2023-08-31T06:34:58;3.25;;;2.97;;
26696;SDS011;14312;52.614;13.496;2023-08-31T06:37:44;3.28;;;3.03;;
26696;SDS011;14312;52.614;13.496;2023-08-31T06:40:31;4.55;;;4.15;;
26696;SDS011;14312;52.614;13.496;2023-08-31T06:43:17;3.90;;;3.53;;
26696;SDS011;14312;52.614;13.496;2023-08-31T06:46:03;3.63;;;3.33;;
26696;SDS011;14312;52.614;13.496;2023-08-31T06:48:49;3.47;;;3.20;;
26696;SDS011;14312;52.614;13.496;2023-08-31T06:51:35;3.90;;;3.60;;
26696;SDS011;14312;52.614;13.496;2023-08-31T06:54:21;3.50;;;3.20;;
26696;SDS011;14312;52.614;13.496;2023-08-31T06:57:07;4.30;;;3.90;;
26696;SDS011;14312;52.614;13.496;2023-08-31T06:59:53;3.65;;;3.35;;
26696;SDS011;14312;52.614;13.496;2023-08-31T07:02:40;3.47;;;3.17;;
26696;SDS011;14312;52.614;13.496;2023-08-31T07:05:27;4.30;;;3.63;;
26696;SDS011;14312;52.614;13.496;2023-08-31T07:08:15;3.70;;;3.20;;
26696;SDS011;14312;52.614;13.496;2023-08-31T07:11:01;3.28;;;3.00;;
26696;SDS011;14312;52.614;13.496;2023-08-31T07:13:47;3.28;;;2.88;;
26696;SDS011;14312;52.614;13.496;2023-08-31T07:16:33;3.67;;;3.20;;
26696;SDS011;14312;52.614;13.496;2023-08-31T07:19:19;4.15;;;3.40;;
26696;SDS011;14312;52.614;13.496;2023-08-31T07:22:12;2.72;;;2.53;;
26696;SDS011;14312;52.614;13.496;2023-08-31T07:24:58;3.60;;;2.83;;
26696;SDS011;14312;52.614;13.496;2023-08-31T07:27:44;4.53;;;3.28;;
26696;SDS011;14312;52.614;13.496;2023-08-31T07:30:30;4.38;;;3.10;;
26696;SDS011;14312;52.614;13.496;2023-08-31T07:33:16;2.78;;;2.50;;
26696;SDS011;14312;52.614;13.496;2023-08-31T07:36:02;3.17;;;2.88;;
26696;SDS011;14312;52.614;13.496;2023-08-31T07:38:49;3.25;;;2.10;;
26696;SDS011;14312;52.614;13.496;2023-08-31T07:41:35;3.28;;;2.42;;
26696;SDS011;14312;52.614;13.496;2023-08-31T07:44:21;2.75;;;2.45;;
26696;SDS011;14312;52.614;13.496;2023-08-31T07:47:07;3.03;;;2.72;;
26696;SDS011;14312;52.614;13.496;2023-08-31T07:49:53;3.15;;;2.70;;
26696;SDS011;14312;52.614;13.496;2023-08-31T07:52:39;2.13;;;2.03;;
26696;SDS011;14312;52.614;13.496;2023-08-31T07:55:25;2.13;;;2.03;;
26696;SDS011;14312;52.614;13.496;2023-08-31T07:58:11;4.57;;;2.45;;
26696;SDS011;14312;52.614;13.496;2023-08-31T08:00:57;2.88;;;2.10;;
26696;SDS011;14312;52.614;13.496;2023-08-31T08:03:43;2.70;;;1.73;;
26696;SDS011;14312;52.614;13.496;2023-08-31T08:06:29;3.97;;;2.00;;
26696;SDS011;14312;52.614;13.496;2023-08-31T08:09:15;3.83;;;2.08;;
26696;SDS011;14312;52.614;13.496;2023-08-31T08:12:01;3.50;;;2.10;;
26696;SDS011;14312;52.614;13.496;2023-08-31T08:14:47;2.28;;;2.00;;
26696;SDS011;14312;52.614;13.496;2023-08-31T08:17:33;2.15;;;1.98;;
26696;SDS011;14312;52.614;13.496;2023-08-31T08:20:19;2.58;;;1.75;;
26696;SDS011;14312;52.614;13.496;2023-08-31T08:23:05;2.40;;;2.20;;
26696;SDS011;14312;52.614;13.496;2023-08-31T08:25:51;2.25;;;1.90;;
26696;SDS011;14312;52.614;13.496;2023-08-31T08:28:37;2.45;;;1.85;;
26696;SDS011;14312;52.614;13.496;2023-08-31T08:31:23;3.92;;;2.35;;
26696;SDS011;14312;52.614;13.496;2023-08-31T08:34:09;1.90;;;1.60;;
26696;SDS011;14312;52.614;13.496;2023-08-31T08:36:55;3.63;;;1.88;;
26696;SDS011;14312;52.614;13.496;2023-08-31T08:39:41;1.95;;;1.55;;
26696;SDS011;14312;52.614;13.496;2023-08-31T08:42:28;2.50;;;1.40;;
26696;SDS011;14312;52.614;13.496;2023-08-31T08:45:15;1.50;;;1.27;;
26696;SDS011;14312;52.614;13.496;2023-08-31T08:48:02;1.30;;;1.20;;
26696;SDS011;14312;52.614;13.496;2023-08-31T08:50:52;2.08;;;1.55;;
26696;SDS011;14312;52.614;13.496;2023-08-31T08:53:42;1.60;;;1.50;;
26696;SDS011;14312;52.614;13.496;2023-08-31T08:56:29;2.53;;;1.30;;
26696;SDS011;14312;52.614;13.496;2023-08-31T08:59:14;2.67;;;1.80;;
26696;SDS011;14312;52.614;13.496;2023-08-31T09:02:00;1.38;;;1.27;;
26696;SDS011;14312;52.614;13.496;2023-08-31T09:04:46;1.85;;;1.52;;
26696;SDS011;14312;52.614;13.496;2023-08-31T09:07:35;1.42;;;1.30;;
26696;SDS011;14312;52.614;13.496;2023-08-31T09:10:24;1.55;;;1.30;;
26696;SDS011;14312;52.614;13.496;2023-08-31T09:13:18;1.42;;;1.20;;
26696;SDS011;14312;52.614;13.496;2023-08-31T09:16:04;1.42;;;1.20;;
26696;SDS011;14312;52.614;13.496;2023-08-31T09:18:50;2.05;;;1.25;;
26696;SDS011;14312;52.614;13.496;2023-08-31T09:21:36;1.23;;;1.10;;
26696;SDS011;14312;52.614;13.496;2023-08-31T09:24:22;1.65;;;1.23;;
26696;SDS011;14312;52.614;13.496;2023-08-31T09:27:09;1.67;;;1.20;;
26696;SDS011;14312;52.614;13.496;2023-08-31T09:29:56;1.50;;;1.10;;
26696;SDS011;14312;52.614;13.496;2023-08-31T09:32:42;1.38;;;1.00;;
26696;SDS011;14312;52.614;13.496;2023-08-31T09:35:29;1.17;;;1.08;;
26696;SDS011;14312;52.614;13.496;2023-08-31T09:38:16;1.58;;;1.20;;
26696;SDS011;14312;52.614;13.496;2023-08-31T09:41:03;1.27;;;0.95;;
26696;SDS011;14312;52.614;13.496;2023-08-31T09:43:51;1.30;;;1.10;;
26696;SDS011;14312;52.614;13.496;2023-08-31T09:46:37;1.95;;;1.10;;
26696;SDS011;14312;52.614;13.496;2023-08-31T09:49:23;1.77;;;1.17;;
26696;SDS011;14312;52.614;13.496;2023-08-31T09:52:10;2.10;;;1.20;;
26696;SDS011;14312;52.614;13.496;2023-08-31T09:54:57;1.88;;;1.23;;
26696;SDS011;14312;52.614;13.496;2023-08-31T09:57:45;1.73;;;1.25;;
26696;SDS011;14312;52.614;13.496;2023-08-31T10:00:31;2.22;;;1.35;;
26696;SDS011;14312;52.614;13.496;2023-08-31T10:03:18;2.03;;;1.33;;
26696;SDS011;14312;52.614;13.496;2023-08-31T10:06:06;1.58;;;1.23;;
26696;SDS011;14312;52.614;13.496;2023-08-31T10:08:52;1.40;;;1.27;;
26696;SDS011;14312;52.614;13.496;2023-08-31T10:11:39;1.30;;;1.10;;
26696;SDS011;14312;52.614;13.496;2023-08-31T10:14:26;2.78;;;1.30;;
26696;SDS011;14312;52.614;13.496;2023-08-31T10:17:14;1.55;;;1.40;;
26696;SDS011;14312;52.614;13.496;2023-08-31T10:20:00;1.65;;;1.30;;
26696;SDS011;14312;52.614;13.496;2023-08-31T10:22:46;1.85;;;1.30;;
26696;SDS011;14312;52.614;13.496;2023-08-31T10:26:05;2.17;;;1.27;;
26696;SDS011;14312;52.614;13.496;2023-08-31T10:28:44;2.65;;;1.23;;
26696;SDS011;14312;52.614;13.496;2023-08-31T10:31:31;2.05;;;1.13;;
26696;SDS011;14312;52.614;13.496;2023-08-31T10:34:19;1.58;;;1.10;;
26696;SDS011;14312;52.614;13.496;2023-08-31T10:37:20;1.73;;;1.10;;
26696;SDS011;14312;52.614;13.496;2023-08-31T10:40:08;1.42;;;1.30;;
26696;SDS011;14312;52.614;13.496;2023-08-31T10:43:13;1.70;;;1.00;;
26696;SDS011;14312;52.614;13.496;2023-08-31T10:46:00;1.77;;;0.98;;
26696;SDS011;14312;52.614;13.496;2023-08-31T10:48:50;2.35;;;1.10;;
26696;SDS011;14312;52.614;13.496;2023-08-31T10:51:40;0.98;;;0.98;;
26696;SDS011;14312;52.614;13.496;2023-08-31T10:54:31;1.55;;;1.08;;
26696;SDS011;14312;52.614;13.496;2023-08-31T10:57:29;2.22;;;1.40;;
26696;SDS011;14312;52.614;13.496;2023-08-31T11:00:45;1.65;;;0.80;;
26696;SDS011;14312;52.614;13.496;2023-08-31T11:03:33;1.10;;;1.00;;
26696;SDS011;14312;52.614;13.496;2023-08-31T11:06:44;1.30;;;1.20;;
26696;SDS011;14312;52.614;13.496;2023-08-31T11:09:30;1.30;;;1.20;;
26696;SDS011;14312;52.614;13.496;2023-08-31T11:12:16;1.55;;;1.23;;
26696;SDS011;14312;52.614;13.496;2023-08-31T11:15:02;1.70;;;1.20;;
26696;SDS011;14312;52.614;13.496;2023-08-31T11:17:52;1.15;;;1.10;;
26696;SDS011;14312;52.614;13.496;2023-08-31T11:20:40;3.22;;;1.17;;
26696;SDS011;14312;52.614;13.496;2023-08-31T11:23:26;1.88;;;1.10;;
26696;SDS011;14312;52.614;13.496;2023-08-31T11:26:12;2.78;;;1.50;;
26696;SDS011;14312;52.614;13.496;2023-08-31T11:28:58;1.88;;;1.42;;
26696;SDS011;14312;52.614;13.496;2023-08-31T11:31:44;1.20;;;1.02;;
26696;SDS011;14312;52.614;13.496;2023-08-31T11:34:30;1.50;;;1.10;;
26696;SDS011;14312;52.614;13.496;2023-08-31T11:37:16;2.78;;;1.17;;
26696;SDS011;14312;52.614;13.496;2023-08-31T11:40:02;1.40;;;1.20;;
26696;SDS011;14312;52.614;13.496;2023-08-31T11:42:50;1.10;;;1.00;;
26696;SDS011;14312;52.614;13.496;2023-08-31T11:45:37;1.42;;;1.20;;
26696;SDS011;14312;52.614;13.496;2023-08-31T11:48:24;1.10;;;1.00;;
26696;SDS011;14312;52.614;13.496;2023-08-31T11:51:10;1.80;;;1.25;;
26696;SDS011;14312;52.614;13.496;2023-08-31T11:53:57;1.20;;;1.02;;
26696;SDS011;14312;52.614;13.496;2023-08-31T11:56:45;1.50;;;1.10;;
26696;SDS011;14312;52.614;13.496;2023-08-31T11:59:34;1.23;;;1.10;;
26696;SDS011;14312;52.614;13.496;2023-08-31T12:02:24;1.40;;;1.20;;
26696;SDS011;14312;52.614;13.496;2023-08-31T12:05:10;1.05;;;0.98;;
26696;SDS011;14312;52.614;13.496;2023-08-31T12:07:56;1.10;;;1.10;;
26696;SDS011;14312;52.614;13.496;2023-08-31T12:10:42;1.92;;;1.15;;
26696;SDS011;14312;52.614;13.496;2023-08-31T12:13:28;1.20;;;1.10;;
26696;SDS011;14312;52.614;13.496;2023-08-31T12:16:14;1.77;;;1.20;;
26696;SDS011;14312;52.614;13.496;2023-08-31T12:19:02;2.78;;;1.40;;
26696;SDS011;14312;52.614;13.496;2023-08-31T12:21:49;1.13;;;1.02;;
26696;SDS011;14312;52.614;13.496;2023-08-31T12:24:41;2.08;;;1.42;;
26696;SDS011;14312;52.614;13.496;2023-08-31T12:27:27;1.58;;;1.40;;
26696;SDS011;14312;52.614;13.496;2023-08-31T12:30:13;1.75;;;1.45;;
26696;SDS011;14312;52.614;13.496;2023-08-31T12:32:59;1.40;;;1.30;;
26696;SDS011;14312;52.614;13.496;2023-08-31T12:35:45;1.52;;;1.13;;
26696;SDS011;14312;52.614;13.496;2023-08-31T12:38:32;1.20;;;1.10;;
26696;SDS011;14312;52.614;13.496;2023-08-31T12:41:19;1.67;;;1.30;;
26696;SDS011;14312;52.614;13.496;2023-08-31T12:44:06;2.70;;;1.20;;
26696;SDS011;14312;52.614;13.496;2023-08-31T12:46:52;1.10;;;1.00;;
26696;SDS011;14312;52.614;13.496;2023-08-31T12:49:39;2.63;;;1.50;;
26696;SDS011;14312;52.614;13.496;2023-08-31T12:52:25;1.42;;;1.25;;
26696;SDS011;14312;52.614;13.496;2023-08-31T12:55:12;1.70;;;1.27;;
26696;SDS011;14312;52.614;13.496;2023-08-31T12:57:59;1.17;;;1.10;;
26696;SDS011;14312;52.614;13.496;2023-08-31T13:00:45;1.10;;;1.10;;
26696;SDS011;14312;52.614;13.496;2023-08-31T13:03:33;1.20;;;1.10;;
26696;SDS011;14312;52.614;13.496;2023-08-31T13:06:19;2.50;;;1.73;;
26696;SDS011;14312;52.614;13.496;2023-08-31T13:09:05;1.98;;;1.35;;
26696;SDS011;14312;52.614;13.496;2023-08-31T13:11:54;2.05;;;1.60;;
26696;SDS011;14312;52.614;13.496;2023-08-31T13:14:40;1.48;;;1.38;;
26696;SDS011;14312;52.614;13.496;2023-08-31T13:17:26;2.17;;;1.98;;
26696;SDS011;14312;52.614;13.496;2023-08-31T13:20:12;1.83;;;1.60;;
26696;SDS011;14312;52.614;13.496;2023-08-31T13:22:58;1.40;;;1.30;;
26696;SDS011;14312;52.614;13.496;2023-08-31T13:25:44;1.77;;;1.40;;
26696;SDS011;14312;52.614;13.496;2023-08-31T13:28:30;2.17;;;1.50;;
26696;SDS011;14312;52.614;13.496;2023-08-31T13:31:17;2.22;;;1.70;;
26696;SDS011;14312;52.614;13.496;2023-08-31T13:34:03;1.67;;;1.40;;
26696;SDS011;14312;52.614;13.496;2023-08-31T13:36:49;1.35;;;1.08;;
26696;SDS011;14312;52.614;13.496;2023-08-31T13:39:36;1.73;;;1.25;;
26696;SDS011;14312;52.614;13.496;2023-08-31T13:42:22;1.02;;;1.00;;
26696;SDS011;14312;52.614;13.496;2023-08-31T13:45:08;1.25;;;1.08;;
26696;SDS011;14312;52.614;13.496;2023-08-31T13:47:54;1.27;;;1.17;;
26696;SDS011;14312;52.614;13.496;2023-08-31T13:50:40;1.83;;;0.90;;
26696;SDS011;14312;52.614;13.496;2023-08-31T13:53:26;1.25;;;1.00;;
26696;SDS011;14312;52.614;13.496;2023-08-31T13:56:12;1.55;;;1.23;;
26696;SDS011;14312;52.614;13.496;2023-08-31T13:58:58;1.05;;;1.00;;
26696;SDS011;14312;52.614;13.496;2023-08-31T14:01:44;1.15;;;1.05;;
26696;SDS011;14312;52.614;13.496;2023-08-31T14:04:30;1.20;;;1.10;;
26696;SDS011;14312;52.614;13.496;2023-08-31T14:07:17;1.08;;;1.00;;
26696;SDS011;14312;52.614;13.496;2023-08-31T14:10:03;3.25;;;1.20;;
26696;SDS011;14312;52.614;13.496;2023-08-31T14:12:50;1.30;;;1.20;;
26696;SDS011;14312;52.614;13.496;2023-08-31T14:15:36;1.15;;;1.00;;
26696;SDS011;14312;52.614;13.496;2023-08-31T14:18:29;1.88;;;0.90;;
26696;SDS011;14312;52.614;13.496;2023-08-31T14:21:17;1.20;;;1.10;;
26696;SDS011;14312;52.614;13.496;2023-08-31T14:24:03;0.90;;;0.90;;
26696;SDS011;14312;52.614;13.496;2023-08-31T14:26:49;1.88;;;1.33;;
26696;SDS011;14312;52.614;13.496;2023-08-31T14:29:37;1.10;;;1.00;;
26696;SDS011;14312;52.614;13.496;2023-08-31T14:32:23;1.98;;;1.20;;
26696;SDS011;14312;52.614;13.496;2023-08-31T14:35:09;1.17;;;1.08;;
26696;SDS011;14312;52.614;13.496;2023-08-31T14:37:56;1.20;;;1.10;;
26696;SDS011;14312;52.614;13.496;2023-08-31T14:40:42;1.33;;;1.15;;
26696;SDS011;14312;52.614;13.496;2023-08-31T14:43:28;1.15;;;1.00;;
26696;SDS011;14312;52.614;13.496;2023-08-31T14:46:14;0.93;;;0.90;;
26696;SDS011;14312;52.614;13.496;2023-08-31T14:49:00;0.70;;;0.70;;
26696;SDS011;14312;52.614;13.496;2023-08-31T14:51:46;0.70;;;0.70;;
26696;SDS011;14312;52.614;13.496;2023-08-31T14:54:32;0.70;;;0.70;;
26696;SDS011;14312;52.614;13.496;2023-08-31T14:57:19;1.48;;;0.90;;
26696;SDS011;14312;52.614;13.496;2023-08-31T15:00:05;1.77;;;0.90;;
26696;SDS011;14312;52.614;13.496;2023-08-31T15:02:53;1.17;;;0.95;;
26696;SDS011;14312;52.614;13.496;2023-08-31T15:05:40;0.75;;;0.73;;
26696;SDS011;14312;52.614;13.496;2023-08-31T15:08:36;0.90;;;0.80;;
26696;SDS011;14312;52.614;13.496;2023-08-31T15:11:30;0.73;;;0.73;;
26696;SDS011;14312;52.614;13.496;2023-08-31T15:14:16;0.80;;;0.75;;
26696;SDS011;14312;52.614;13.496;2023-08-31T15:17:02;0.80;;;0.80;;
26696;SDS011;14312;52.614;13.496;2023-08-31T15:19:50;1.00;;;0.90;;
26696;SDS011;14312;52.614;13.496;2023-08-31T15:22:37;0.82;;;0.65;;
26696;SDS011;14312;52.614;13.496;2023-08-31T15:25:23;1.20;;;1.00;;
26696;SDS011;14312;52.614;13.496;2023-08-31T15:28:09;1.63;;;0.90;;
26696;SDS011;14312;52.614;13.496;2023-08-31T15:30:55;1.25;;;0.90;;
26696;SDS011;14312;52.614;13.496;2023-08-31T15:33:41;0.93;;;0.75;;
26696;SDS011;14312;52.614;13.496;2023-08-31T15:36:28;0.75;;;0.75;;
26696;SDS011;14312;52.614;13.496;2023-08-31T15:39:14;0.70;;;0.70;;
26696;SDS011;14312;52.614;13.496;2023-08-31T15:42:00;0.90;;;0.77;;
26696;SDS011;14312;52.614;13.496;2023-08-31T15:44:47;1.00;;;0.90;;
26696;SDS011;14312;52.614;13.496;2023-08-31T15:47:32;0.80;;;0.80;;
26696;SDS011;14312;52.614;13.496;2023-08-31T15:50:18;0.80;;;0.80;;
26696;SDS011;14312;52.614;13.496;2023-08-31T15:53:04;1.38;;;0.80;;
26696;SDS011;14312;52.614;13.496;2023-08-31T15:55:51;1.10;;;1.00;;
26696;SDS011;14312;52.614;13.496;2023-08-31T15:58:37;0.80;;;0.80;;
26696;SDS011;14312;52.614;13.496;2023-08-31T16:01:23;0.85;;;0.85;;
26696;SDS011;14312;52.614;13.496;2023-08-31T16:04:09;0.98;;;0.90;;
26696;SDS011;14312;52.614;13.496;2023-08-31T16:06:55;0.80;;;0.80;;
26696;SDS011;14312;52.614;13.496;2023-08-31T16:09:41;1.30;;;0.90;;
26696;SDS011;14312;52.614;13.496;2023-08-31T16:12:27;0.73;;;0.73;;
26696;SDS011;14312;52.614;13.496;2023-08-31T16:15:13;0.60;;;0.60;;
26696;SDS011;14312;52.614;13.496;2023-08-31T16:17:59;1.20;;;0.95;;
26696;SDS011;14312;52.614;13.496;2023-08-31T16:20:45;0.93;;;0.90;;
26696;SDS011;14312;52.614;13.496;2023-08-31T16:23:30;0.88;;;0.88;;
26696;SDS011;14312;52.614;13.496;2023-08-31T16:26:16;0.90;;;0.80;;
26696;SDS011;14312;52.614;13.496;2023-08-31T16:29:02;0.80;;;0.80;;
26696;SDS011;14312;52.614;13.496;2023-08-31T16:31:49;1.40;;;0.90;;
26696;SDS011;14312;52.614;13.496;2023-08-31T16:34:35;1.05;;;0.95;;
26696;SDS011;14312;52.614;13.496;2023-08-31T16:37:21;0.95;;;0.95;;
26696;SDS011;14312;52.614;13.496;2023-08-31T16:40:10;0.80;;;0.80;;